createdAt,value
2023-04-07T00:00:31.283Z,10.43
2023-04-07T00:03:16.437Z,11.32
2023-04-07T00:06:01.480Z,9.30
2023-04-07T00:08:46.277Z,10.23
2023-04-07T00:11:31.462Z,9.43
2023-04-07T00:14:17.373Z,11.65
2023-04-07T00:17:02.128Z,10.05
2023-04-07T00:19:46.818Z,9.23
2023-04-07T00:22:32.145Z,9.52
2023-04-07T00:25:17.217Z,12.20
2023-04-07T00:28:02.466Z,10.07
2023-04-07T00:30:47.211Z,10.48
2023-04-07T00:33:32.306Z,9.95
2023-04-07T00:36:17.136Z,9.88
2023-04-07T00:39:02.209Z,10.53
2023-04-07T00:41:47.777Z,11.20
2023-04-07T00:44:33.076Z,12.30
2023-04-07T00:47:17.953Z,9.93
2023-04-07T00:50:07.029Z,13.68
2023-04-07T00:52:54.717Z,9.63
2023-04-07T00:55:39.699Z,9.27
2023-04-07T00:58:24.449Z,7.50
2023-04-07T01:01:15.568Z,8.73
2023-04-07T01:04:09.954Z,8.15
2023-04-07T01:06:58.955Z,9.77
2023-04-07T01:09:55.267Z,8.80
2023-04-07T01:12:51.898Z,9.55
2023-04-07T01:15:39.503Z,7.88
2023-04-07T01:18:32.530Z,11.32
2023-04-07T01:21:18.956Z,10.77
2023-04-07T01:24:43.682Z,10.20
2023-04-07T01:27:38.371Z,12.90
2023-04-07T01:30:27.059Z,10.63
2023-04-07T01:33:14.433Z,11.05
2023-04-07T01:36:03.181Z,12.10
2023-04-07T01:38:50.433Z,13.27
2023-04-07T01:41:37.741Z,14.20
2023-04-07T01:44:23.677Z,15.20
2023-04-07T01:47:09.474Z,15.95
2023-04-07T01:49:55.561Z,18.33
2023-04-07T01:52:41.644Z,16.48
2023-04-07T01:55:26.779Z,20.48
2023-04-07T01:58:11.666Z,17.27
2023-04-07T02:00:56.844Z,16.35
2023-04-07T02:04:05.187Z,15.37
2023-04-07T02:06:56.317Z,18.98
2023-04-07T02:09:43.211Z,18.77
2023-04-07T02:12:31.118Z,16.63
2023-04-07T02:15:16.587Z,16.90
2023-04-07T02:18:03.557Z,18.13
2023-04-07T02:20:50.455Z,20.77
2023-04-07T02:23:35.906Z,19.17
2023-04-07T02:26:21.314Z,14.57
2023-04-07T02:29:06.811Z,19.13
2023-04-07T02:31:51.892Z,19.47
2023-04-07T02:34:36.957Z,20.67
2023-04-07T02:37:21.742Z,19.92
2023-04-07T02:40:07.807Z,21.77
2023-04-07T02:42:52.456Z,19.75
2023-04-07T02:45:37.651Z,23.23
2023-04-07T02:48:22.541Z,21.00
2023-04-07T02:51:07.631Z,23.52
2023-04-07T02:53:52.971Z,20.17
2023-04-07T02:56:38.228Z,27.33
2023-04-07T02:59:23.797Z,23.50
2023-04-07T03:02:08.684Z,26.60
2023-04-07T03:04:54.051Z,25.38
2023-04-07T03:07:38.747Z,26.60
2023-04-07T03:10:23.665Z,26.25
2023-04-07T03:13:08.611Z,26.00
2023-04-07T03:15:53.752Z,28.30
2023-04-07T03:18:38.839Z,23.13
2023-04-07T03:21:23.474Z,27.40
2023-04-07T03:24:08.848Z,25.02
2023-04-07T03:26:53.867Z,23.67
2023-04-07T03:29:39.083Z,27.63
2023-04-07T03:32:24.259Z,25.42
2023-04-07T03:35:09.347Z,28.02
2023-04-07T03:37:54.522Z,25.65
2023-04-07T03:40:39.457Z,26.20
2023-04-07T03:43:24.676Z,27.83
2023-04-07T03:46:09.581Z,31.52
2023-04-07T03:48:54.386Z,25.45
2023-04-07T03:51:39.679Z,25.08
2023-04-07T03:54:24.480Z,30.43
2023-04-07T03:57:09.790Z,23.23
2023-04-07T03:59:55.202Z,28.15
2023-04-07T04:02:40.393Z,27.60
2023-04-07T04:05:25.420Z,27.70
2023-04-07T04:08:10.254Z,23.77
2023-04-07T04:10:55.218Z,27.30
2023-04-07T04:13:40.348Z,32.88
2023-04-07T04:16:25.345Z,23.92
2023-04-07T04:19:10.315Z,26.02
2023-04-07T04:21:55.185Z,27.60
2023-04-07T04:24:41.728Z,27.23
2023-04-07T04:27:27.301Z,27.70
2023-04-07T04:30:12.327Z,26.20
2023-04-07T04:32:57.398Z,25.60
2023-04-07T04:35:42.527Z,27.53
2023-04-07T04:38:27.353Z,31.42
2023-04-07T04:41:12.434Z,26.55
2023-04-07T04:43:57.261Z,25.17
2023-04-07T04:46:42.547Z,32.03
2023-04-07T04:49:27.217Z,27.13
2023-04-07T04:52:12.309Z,27.60
2023-04-07T04:54:57.191Z,27.75
2023-04-07T04:57:42.255Z,30.77
2023-04-07T05:00:27.080Z,29.90
2023-04-07T05:03:12.554Z,31.57
2023-04-07T05:05:57.568Z,31.05
2023-04-07T05:08:42.621Z,27.60
2023-04-07T05:11:27.452Z,29.05
2023-04-07T05:14:12.651Z,29.17
2023-04-07T05:16:57.646Z,26.37
2023-04-07T05:19:42.755Z,26.58
2023-04-07T05:22:27.594Z,29.83
2023-04-07T05:25:12.750Z,25.48
2023-04-07T05:27:58.598Z,29.08
2023-04-07T05:30:43.786Z,24.57
2023-04-07T05:33:28.587Z,24.05
2023-04-07T05:36:13.699Z,27.85
2023-04-07T05:38:58.484Z,26.90
2023-04-07T05:41:43.616Z,24.20
2023-04-07T05:44:28.368Z,24.97
2023-04-07T05:47:13.443Z,26.92
2023-04-07T05:49:58.259Z,26.42
2023-04-07T05:52:43.169Z,21.35
2023-04-07T05:55:28.158Z,26.50
2023-04-07T05:58:13.280Z,22.87
2023-04-07T06:00:58.185Z,18.30
2023-04-07T06:03:43.616Z,24.15
2023-04-07T06:06:29.241Z,21.10
2023-04-07T06:09:14.422Z,21.75
2023-04-07T06:11:59.257Z,26.50
2023-04-07T06:14:51.366Z,23.20
2023-04-07T06:17:36.475Z,24.67
2023-04-07T06:20:24.137Z,23.98
2023-04-07T06:23:09.197Z,22.85
2023-04-07T06:25:54.071Z,18.07
2023-04-07T06:28:39.425Z,18.52
2023-04-07T06:31:24.860Z,20.85
2023-04-07T06:34:09.901Z,17.52
2023-04-07T06:36:55.883Z,17.48
2023-04-07T06:39:42.271Z,18.10
2023-04-07T06:42:27.209Z,15.75
2023-04-07T06:45:12.481Z,16.58
2023-04-07T06:47:57.180Z,19.33
2023-04-07T06:50:45.757Z,16.95
2023-04-07T06:53:30.513Z,17.23
2023-04-07T06:56:15.461Z,18.13
2023-04-07T06:59:01.413Z,16.42
2023-04-07T07:01:46.622Z,17.63
2023-04-07T07:04:31.473Z,13.77
2023-04-07T07:07:16.589Z,14.93
2023-04-07T07:10:01.681Z,14.93
2023-04-07T07:12:46.377Z,13.52
2023-04-07T07:15:31.092Z,16.77
2023-04-07T07:18:17.315Z,12.73
2023-04-07T07:21:02.223Z,13.07
2023-04-07T07:23:47.196Z,9.18
2023-04-07T07:26:31.948Z,9.68
2023-04-07T07:29:17.011Z,10.88
2023-04-07T07:32:01.948Z,11.43
2023-04-07T07:34:46.646Z,9.30
2023-04-07T07:37:31.771Z,7.40
2023-04-07T07:40:16.542Z,14.15
2023-04-07T07:43:01.350Z,8.85
2023-04-07T07:45:46.537Z,8.52
2023-04-07T07:48:31.362Z,9.53
2023-04-07T07:51:16.264Z,9.18
2023-04-07T07:54:01.011Z,15.90
2023-04-07T07:56:46.401Z,14.00
2023-04-07T07:59:31.942Z,8.57
2023-04-07T08:02:17.188Z,10.93
2023-04-07T08:05:02.157Z,12.20
2023-04-07T08:07:47.074Z,7.88
2023-04-07T08:10:32.378Z,11.95
2023-04-07T08:13:17.143Z,10.88
2023-04-07T08:16:02.458Z,8.23
2023-04-07T08:18:47.252Z,6.60
2023-04-07T08:21:32.612Z,8.13
2023-04-07T08:24:17.333Z,6.40
2023-04-07T08:27:02.565Z,8.55
2023-04-07T08:30:09.833Z,8.83
2023-04-07T08:32:54.978Z,9.98
2023-04-07T08:35:40.229Z,10.02
2023-04-07T08:38:25.063Z,7.78
2023-04-07T08:41:18.301Z,10.02
2023-04-07T08:44:03.701Z,7.73
2023-04-07T08:46:50.961Z,8.05
2023-04-07T08:49:37.675Z,8.48
2023-04-07T08:52:23.322Z,6.75
2023-04-07T08:55:09.109Z,9.30
2023-04-07T08:57:54.498Z,7.63
2023-04-07T09:00:46.698Z,7.28
2023-04-07T09:03:33.706Z,6.70
2023-04-07T09:06:19.180Z,7.22
2023-04-07T09:09:06.159Z,8.02
2023-04-07T09:11:52.617Z,7.03
2023-04-07T09:14:37.505Z,8.43
2023-04-07T09:17:22.862Z,8.52
2023-04-07T09:20:08.206Z,12.18
2023-04-07T09:22:53.095Z,7.15
2023-04-07T09:25:38.226Z,8.17
2023-04-07T09:28:23.224Z,6.20
2023-04-07T09:31:08.190Z,8.30
2023-04-07T09:33:53.319Z,11.85
2023-04-07T09:36:42.188Z,8.25
2023-04-07T09:39:27.147Z,7.30
2023-04-07T09:42:12.097Z,8.93
2023-04-07T09:44:56.843Z,9.27
2023-04-07T09:47:41.979Z,6.38
2023-04-07T09:50:35.005Z,7.30
2023-04-07T09:53:21.249Z,7.57
2023-04-07T09:56:06.598Z,6.22
2023-04-07T09:58:52.033Z,7.40
2023-04-07T10:01:36.865Z,8.45
2023-04-07T10:04:23.084Z,7.82
2023-04-07T10:07:08.037Z,8.70
2023-04-07T10:09:52.807Z,9.15
2023-04-07T10:12:38.333Z,9.18
2023-04-07T10:15:23.687Z,10.30
2023-04-07T10:18:09.157Z,9.63
2023-04-07T10:20:54.430Z,12.40
2023-04-07T10:23:54.716Z,12.50
2023-04-07T10:26:40.770Z,13.82
2023-04-07T10:29:31.388Z,15.32
2023-04-07T10:32:16.474Z,11.23
2023-04-07T10:35:01.337Z,10.17
2023-04-07T10:38:08.499Z,8.77
2023-04-07T10:40:53.639Z,10.65
2023-04-07T10:43:41.613Z,10.07
2023-04-07T10:46:49.393Z,10.43
2023-04-07T10:49:35.165Z,11.17
2023-04-07T10:52:23.123Z,8.43
2023-04-07T10:55:29.018Z,7.70
2023-04-07T10:58:26.108Z,15.75
2023-04-07T11:01:11.005Z,11.35
2023-04-07T11:03:58.152Z,10.00
2023-04-07T11:06:48.056Z,8.15
2023-04-07T11:09:32.993Z,7.10
2023-04-07T11:12:24.284Z,11.40
2023-04-07T11:15:22.377Z,9.82
2023-04-07T11:18:17.913Z,11.37
2023-04-07T11:21:05.655Z,11.98
2023-04-07T11:23:51.004Z,11.38
2023-04-07T11:26:41.432Z,9.73
2023-04-07T11:29:33.389Z,11.00
2023-04-07T11:32:25.853Z,13.80
2023-04-07T11:35:11.460Z,11.90
2023-04-07T11:38:01.771Z,12.68
2023-04-07T11:40:47.080Z,11.23
2023-04-07T11:43:32.356Z,14.43
2023-04-07T11:46:18.637Z,18.80
2023-04-07T11:49:14.774Z,12.18
2023-04-07T11:52:06.670Z,12.95
2023-04-07T11:54:51.821Z,11.90
2023-04-07T11:57:37.429Z,13.85
2023-04-07T12:00:22.632Z,11.63
2023-04-07T12:03:14.591Z,15.10
2023-04-07T12:06:01.466Z,12.68
2023-04-07T12:08:46.786Z,14.95
2023-04-07T12:11:32.998Z,14.38
2023-04-07T12:14:18.007Z,11.80
2023-04-07T12:17:03.732Z,18.33
2023-04-07T12:19:48.948Z,14.75
2023-04-07T12:22:34.022Z,13.02
2023-04-07T12:25:18.695Z,15.98
2023-04-07T12:28:03.807Z,14.53
2023-04-07T12:30:48.942Z,14.35
2023-04-07T12:33:33.987Z,19.35
2023-04-07T12:36:18.742Z,15.80
2023-04-07T12:39:03.955Z,14.38
2023-04-07T12:41:49.144Z,14.60
2023-04-07T12:44:34.046Z,14.40
2023-04-07T12:47:18.846Z,14.68
2023-04-07T12:50:04.244Z,16.00
2023-04-07T12:52:49.475Z,11.77
2023-04-07T12:55:35.571Z,18.03
2023-04-07T12:58:20.668Z,12.30
2023-04-07T13:01:06.209Z,15.88
2023-04-07T13:03:52.010Z,16.35
2023-04-07T13:06:37.423Z,16.88
2023-04-07T13:09:22.053Z,16.67
2023-04-07T13:12:07.172Z,16.45
2023-04-07T13:14:59.809Z,14.23
2023-04-07T13:17:46.388Z,15.35
2023-04-07T13:20:31.790Z,18.27
2023-04-07T13:23:16.683Z,21.33
2023-04-07T13:26:01.471Z,15.45
2023-04-07T13:28:47.796Z,16.83
2023-04-07T13:31:32.860Z,14.50
2023-04-07T13:34:18.663Z,13.27
2023-04-07T13:37:04.565Z,17.03
2023-04-07T13:39:49.582Z,13.48
2023-04-07T13:42:34.732Z,20.73
2023-04-07T13:45:19.547Z,17.60
2023-04-07T13:48:04.722Z,15.40
2023-04-07T13:50:49.556Z,12.40
2023-04-07T13:53:34.627Z,15.45
2023-04-07T13:56:19.626Z,13.85
2023-04-07T13:59:07.855Z,12.70
2023-04-07T14:01:52.815Z,11.05
2023-04-07T14:04:37.992Z,10.27
2023-04-07T14:07:23.883Z,10.68
2023-04-07T14:10:10.705Z,11.98
2023-04-07T14:12:56.126Z,13.90
2023-04-07T14:15:41.090Z,9.90
2023-04-07T14:18:27.858Z,12.47
2023-04-07T14:21:12.772Z,9.07
2023-04-07T14:23:57.776Z,10.73
2023-04-07T14:26:43.526Z,10.73
2023-04-07T14:29:28.620Z,12.32
2023-04-07T14:32:13.760Z,10.50
2023-04-07T14:34:59.249Z,13.70
2023-04-07T14:37:44.132Z,13.88
2023-04-07T14:40:28.926Z,12.40
2023-04-07T14:43:13.908Z,12.43
2023-04-07T14:45:59.636Z,11.07
2023-04-07T14:48:45.998Z,8.75
2023-04-07T14:51:31.214Z,13.60
2023-04-07T14:54:16.226Z,12.88
2023-04-07T14:57:01.167Z,9.35
2023-04-07T14:59:47.005Z,15.03
2023-04-07T15:02:32.552Z,11.02
2023-04-07T15:05:17.327Z,13.25
2023-04-07T15:08:02.180Z,11.07
2023-04-07T15:10:47.185Z,8.77
2023-04-07T15:13:32.020Z,14.53
2023-04-07T15:16:17.297Z,13.90
2023-04-07T15:19:01.885Z,11.75
2023-04-07T15:21:46.936Z,12.63
2023-04-07T15:24:31.670Z,12.70
2023-04-07T15:27:16.722Z,10.97
2023-04-07T15:30:01.694Z,12.07
2023-04-07T15:33:00.875Z,10.35
2023-04-07T15:35:47.020Z,11.25
2023-04-07T15:38:31.799Z,10.45
2023-04-07T15:41:17.241Z,12.33
2023-04-07T15:44:03.332Z,10.77
2023-04-07T15:46:48.556Z,12.73
2023-04-07T15:49:33.776Z,10.85
2023-04-07T15:52:18.713Z,10.23
2023-04-07T15:55:03.777Z,11.90
2023-04-07T15:57:48.951Z,12.27
2023-04-07T16:00:35.535Z,11.52
2023-04-07T16:03:20.566Z,10.93
2023-04-07T16:06:05.782Z,12.75
2023-04-07T16:08:50.891Z,9.40
2023-04-07T16:11:36.111Z,13.68
2023-04-07T16:14:21.061Z,10.20
2023-04-07T16:17:06.075Z,9.80
2023-04-07T16:19:51.400Z,9.55
2023-04-07T16:22:36.584Z,9.17
2023-04-07T16:25:21.546Z,8.45
2023-04-07T16:28:06.464Z,10.40
2023-04-07T16:30:51.308Z,10.95
2023-04-07T16:33:36.471Z,11.02
2023-04-07T16:36:21.241Z,9.57
2023-04-07T16:39:06.417Z,9.80
2023-04-07T16:41:51.818Z,12.35
2023-04-07T16:44:36.929Z,11.40
2023-04-07T16:47:21.658Z,12.10
2023-04-07T16:50:07.457Z,10.33
2023-04-07T16:52:52.715Z,10.82
2023-04-07T16:55:38.582Z,11.73
2023-04-07T16:58:23.654Z,11.52
2023-04-07T17:01:08.653Z,11.57
2023-04-07T17:03:53.672Z,8.73
2023-04-07T17:06:39.063Z,12.10
2023-04-07T17:09:23.812Z,8.70
2023-04-07T17:12:09.020Z,8.07
2023-04-07T17:14:53.813Z,8.63
2023-04-07T17:17:39.235Z,7.27
2023-04-07T17:20:24.284Z,9.40
2023-04-07T17:23:10.391Z,11.52
2023-04-07T17:25:55.423Z,12.50
2023-04-07T17:28:40.843Z,9.45
2023-04-07T17:31:26.187Z,9.87
2023-04-07T17:34:11.753Z,10.57
2023-04-07T17:36:56.886Z,9.68
2023-04-07T17:39:41.893Z,11.52
2023-04-07T17:42:26.927Z,9.13
2023-04-07T17:45:12.527Z,9.17
2023-04-07T17:47:58.136Z,9.50
2023-04-07T17:50:43.562Z,8.88
2023-04-07T17:53:28.593Z,11.38
2023-04-07T17:56:13.790Z,10.75
2023-04-07T17:58:58.437Z,7.23
2023-04-07T18:01:43.663Z,8.35
2023-04-07T18:04:30.307Z,11.38
2023-04-07T18:07:15.048Z,9.82
2023-04-07T18:09:59.873Z,11.15
2023-04-07T18:12:45.428Z,11.27
2023-04-07T18:15:30.342Z,14.15
2023-04-07T18:18:16.298Z,9.55
2023-04-07T18:21:01.207Z,11.45
2023-04-07T18:23:46.413Z,13.15
2023-04-07T18:26:31.931Z,10.17
2023-04-07T18:29:17.224Z,12.55
2023-04-07T18:32:02.126Z,12.13
2023-04-07T18:34:47.784Z,13.35
2023-04-07T18:37:32.609Z,9.57
2023-04-07T18:40:17.653Z,11.77
2023-04-07T18:43:02.618Z,12.38
2023-04-07T18:45:47.593Z,14.10
2023-04-07T18:48:32.501Z,14.70
2023-04-07T18:51:17.326Z,13.98
2023-04-07T18:54:01.984Z,13.97
2023-04-07T18:56:48.116Z,13.82
2023-04-07T18:59:32.870Z,16.23
2023-04-07T19:02:18.023Z,10.75
2023-04-07T19:05:02.994Z,10.27
2023-04-07T19:07:47.911Z,14.90
2023-04-07T19:10:32.744Z,11.93
2023-04-07T19:13:18.800Z,14.38
2023-04-07T19:16:03.751Z,16.13
2023-04-07T19:18:48.518Z,18.08
2023-04-07T19:21:33.403Z,13.07
2023-04-07T19:24:18.484Z,16.00
2023-04-07T19:27:04.122Z,13.00
2023-04-07T19:29:48.908Z,13.18
2023-04-07T19:32:34.067Z,15.98
2023-04-07T19:35:18.795Z,17.40
2023-04-07T19:38:05.204Z,16.80
2023-04-07T19:40:50.423Z,16.15
2023-04-07T19:43:35.544Z,12.82
2023-04-07T19:46:20.586Z,14.05
2023-04-07T19:49:05.372Z,13.67
2023-04-07T19:51:52.625Z,12.95
2023-04-07T19:54:37.541Z,16.88
2023-04-07T19:57:22.565Z,13.95
2023-04-07T20:00:08.875Z,10.85
2023-04-07T20:02:53.731Z,13.50
2023-04-07T20:05:38.716Z,13.65
2023-04-07T20:08:23.652Z,14.30
2023-04-07T20:11:13.124Z,16.08
2023-04-07T20:13:58.840Z,15.30
2023-04-07T20:16:43.624Z,11.77
2023-04-07T20:19:28.490Z,11.80
2023-04-07T20:22:13.638Z,13.65
2023-04-07T20:24:58.736Z,14.20
2023-04-07T20:27:46.489Z,15.40
2023-04-07T20:30:31.914Z,12.00
2023-04-07T20:33:16.961Z,15.68
2023-04-07T20:36:01.990Z,14.57
2023-04-07T20:38:48.020Z,15.43
2023-04-07T20:41:33.042Z,16.67
2023-04-07T20:44:18.370Z,15.53
2023-04-07T20:47:10.829Z,15.88
2023-04-07T20:49:55.942Z,15.98
2023-04-07T20:52:43.243Z,11.90
2023-04-07T20:55:28.696Z,12.73
2023-04-07T20:58:13.764Z,18.00
2023-04-07T21:01:00.649Z,12.80
2023-04-07T21:03:45.853Z,15.02
2023-04-07T21:06:31.363Z,14.63
2023-04-07T21:09:16.252Z,19.25
2023-04-07T21:12:03.329Z,13.87
2023-04-07T21:14:48.522Z,16.27
2023-04-07T21:17:33.666Z,16.98
2023-04-07T21:20:18.841Z,11.68
2023-04-07T21:23:09.946Z,16.83
2023-04-07T21:25:59.758Z,20.10
2023-04-07T21:28:44.535Z,10.35
2023-04-07T21:31:29.201Z,20.20
2023-04-07T21:34:14.236Z,10.13
2023-04-07T21:36:59.194Z,14.18
2023-04-07T21:39:44.112Z,17.47
2023-04-07T21:42:28.986Z,15.15
2023-04-07T21:45:14.075Z,16.35
2023-04-07T21:47:58.849Z,17.00
2023-04-07T21:50:43.900Z,12.02
2023-04-07T21:53:28.703Z,18.97
2023-04-07T21:56:13.723Z,12.32
2023-04-07T21:58:58.934Z,14.32
2023-04-07T22:01:46.809Z,10.57
2023-04-07T22:04:32.064Z,11.13
2023-04-07T22:07:17.011Z,14.30
2023-04-07T22:10:01.930Z,14.48
2023-04-07T22:12:47.218Z,15.35
2023-04-07T22:15:32.324Z,14.70
2023-04-07T22:18:17.413Z,9.82
2023-04-07T22:21:02.291Z,13.03
2023-04-07T22:23:47.449Z,10.68
2023-04-07T22:26:32.508Z,12.57
2023-04-07T22:29:17.476Z,13.18
2023-04-07T22:32:02.590Z,13.57
2023-04-07T22:34:47.777Z,14.37
2023-04-07T22:37:32.585Z,15.32
2023-04-07T22:40:17.927Z,13.30
2023-04-07T22:43:02.806Z,10.23
2023-04-07T22:45:47.760Z,15.90
2023-04-07T22:48:32.485Z,16.03
2023-04-07T22:51:17.575Z,16.52
2023-04-07T22:54:02.426Z,12.98
2023-04-07T22:56:47.485Z,10.70
2023-04-07T22:59:32.426Z,13.40
2023-04-07T23:02:17.603Z,14.23
2023-04-07T23:05:03.439Z,14.88
2023-04-07T23:07:48.414Z,12.85
2023-04-07T23:10:33.373Z,16.17
2023-04-07T23:13:19.015Z,13.15
2023-04-07T23:16:05.450Z,16.27
2023-04-07T23:18:50.796Z,16.40
2023-04-07T23:21:35.822Z,21.65
2023-04-07T23:24:20.797Z,13.68
2023-04-07T23:27:05.702Z,19.80
2023-04-07T23:29:51.329Z,11.70
2023-04-07T23:32:36.392Z,16.20
2023-04-07T23:35:21.189Z,13.95
2023-04-07T23:38:08.722Z,16.10
2023-04-07T23:40:53.691Z,14.35
2023-04-07T23:43:39.277Z,9.90
2023-04-07T23:46:24.254Z,13.65
2023-04-07T23:49:09.123Z,13.35
2023-04-07T23:51:53.966Z,9.07
2023-04-07T23:54:39.062Z,15.00
2023-04-07T23:57:23.944Z,16.37
